メインページ
METAR-TAF:

METAR-TAF

空港 :

出雲空港

出雲, 日本

緯度: 35-25N, 経度: 132-54E, 海抜: 2m

現時点の気象観測

当レポートは1時間5分前の11:00(UTC)に作成
東/北東の風 20kt
気温 15°C
湿度 72%
気圧 1019 hPa
視程10km以上
高度2000ftの雲はほとんどない
高度2500ftの雲は散在している
千切れ雲あり

METAR: RJOC 201100Z 07020KT 9999 FEW020 SCT025 BKN/// 15/10 Q1019

時間: 21:05 (12:05 UTC)

予報

当レポートは1時間0分前の11:05(UTC)に作成
予報は20日の 12時(UTC)から 21日の 18時(UTC)まで有効
の風 15kt
視程10km以上
高度2000ftの雲はほとんどない
20日の 14時(UTC)から 20日の 16時(UTC)まで徐々に
の風 6kt
20日の 21時(UTC)から 20日の 23時(UTC)まで徐々に
東/北東の風 16kt
21日の 12時(UTC)から 21日の 15時(UTC)まで徐々に
の風 6kt

TAF: RJOC 201105Z 2012/2118 09015KT 9999 FEW020 BECMG 2014/2016 17006KT BECMG 2021/2023 07016KT BECMG 2112/2115 17006KT

4,000以上の空港の気象観測と天気予報(METAR報とTAF報)

利用可能な観測所は地図上に黄色い丸と赤い丸で示す。

丸の上にカーソルを重ねると観測所名を参照できる。

次にクリックすると気象観測と天気予報を参照できる。

マップの切り替え:黒色「×」印の緑ボタンをクリックして拡大、「-」印の緑ボタンをクリックして縮小、緑色の三角印をクリックして隣りの地図に切り替え


METAR-TAF: